createdAt,value
2017-12-29T00:01:10.020Z,5.40
2017-12-29T00:03:43.719Z,5.50
2017-12-29T00:06:17.262Z,5.50
2017-12-29T00:08:50.803Z,5.50
2017-12-29T00:11:24.370Z,5.50
2017-12-29T00:13:58.032Z,5.50
2017-12-29T00:16:31.722Z,5.50
2017-12-29T00:19:05.302Z,5.50
2017-12-29T00:21:38.895Z,5.50
2017-12-29T00:24:12.543Z,5.50
2017-12-29T00:26:46.037Z,5.30
2017-12-29T00:29:19.591Z,5.40
2017-12-29T00:31:53.239Z,5.50
2017-12-29T00:34:26.819Z,5.50
2017-12-29T00:37:00.374Z,5.30
2017-12-29T00:39:33.939Z,5.30
2017-12-29T00:42:07.398Z,5.20
2017-12-29T00:44:41.002Z,5.20
2017-12-29T00:47:14.576Z,5.30
2017-12-29T00:49:48.237Z,5.30
2017-12-29T00:52:21.683Z,5.30
2017-12-29T00:54:56.135Z,5.30
2017-12-29T00:57:29.843Z,5.30
2017-12-29T01:00:03.531Z,5.30
2017-12-29T01:02:37.121Z,5.40
2017-12-29T01:05:10.762Z,5.40
2017-12-29T01:07:44.218Z,5.50
2017-12-29T01:10:17.883Z,5.40
2017-12-29T01:12:51.462Z,5.50
2017-12-29T01:15:25.029Z,5.50
2017-12-29T01:17:58.772Z,5.40
2017-12-29T01:20:32.884Z,5.40
2017-12-29T01:23:06.796Z,5.40
2017-12-29T01:25:40.263Z,5.40
2017-12-29T01:28:13.887Z,5.50
2017-12-29T01:30:48.417Z,5.40
2017-12-29T01:33:21.883Z,5.40
2017-12-29T01:35:55.516Z,5.60
2017-12-29T01:38:29.219Z,5.60
2017-12-29T01:41:02.666Z,5.60
2017-12-29T01:43:36.217Z,5.50
2017-12-29T01:46:09.810Z,5.40
2017-12-29T01:48:43.517Z,5.40
2017-12-29T01:51:17.121Z,5.50
2017-12-29T01:53:50.818Z,5.50
2017-12-29T01:56:24.418Z,5.50
2017-12-29T01:58:58.333Z,5.40
2017-12-29T02:01:31.984Z,5.40
2017-12-29T02:04:05.640Z,5.50
2017-12-29T02:06:39.240Z,5.50
2017-12-29T02:09:12.827Z,5.40
2017-12-29T02:11:46.436Z,5.40
2017-12-29T02:14:19.993Z,5.50
2017-12-29T02:16:53.615Z,5.50
2017-12-29T02:19:27.195Z,5.40
2017-12-29T02:22:00.840Z,5.30
2017-12-29T02:24:34.441Z,5.30
2017-12-29T02:27:07.927Z,5.30
2017-12-29T02:29:41.638Z,5.30
2017-12-29T02:32:15.199Z,5.30
2017-12-29T02:34:48.749Z,5.30
2017-12-29T02:37:22.275Z,5.30
2017-12-29T02:39:55.723Z,5.30
2017-12-29T02:42:29.340Z,5.30
2017-12-29T02:45:02.906Z,5.30
2017-12-29T02:47:36.495Z,5.40
2017-12-29T02:50:10.044Z,5.30
2017-12-29T02:52:43.596Z,5.30
2017-12-29T02:55:17.450Z,5.30
2017-12-29T02:57:51.768Z,5.30
2017-12-29T03:00:25.467Z,5.30
2017-12-29T03:02:59.035Z,5.20
2017-12-29T03:05:33.482Z,5.30
2017-12-29T03:08:06.982Z,5.30
2017-12-29T03:10:40.463Z,5.30
2017-12-29T03:13:15.003Z,5.30
2017-12-29T03:15:48.602Z,5.30
2017-12-29T03:18:22.169Z,5.30
2017-12-29T03:20:55.946Z,5.30
2017-12-29T03:23:29.442Z,5.30
2017-12-29T03:26:03.794Z,5.30
2017-12-29T03:28:37.427Z,5.30
2017-12-29T03:31:11.036Z,5.30
2017-12-29T03:33:44.633Z,5.20
2017-12-29T03:36:18.238Z,5.20
2017-12-29T03:38:51.838Z,5.20
2017-12-29T03:41:25.399Z,5.00
2017-12-29T03:43:59.040Z,5.10
2017-12-29T03:46:32.726Z,5.10
2017-12-29T03:49:06.340Z,5.10
2017-12-29T03:51:40.039Z,5.10
2017-12-29T03:54:13.751Z,5.10
2017-12-29T03:56:47.244Z,5.10
2017-12-29T03:59:21.622Z,5.20
2017-12-29T04:01:55.262Z,5.20
2017-12-29T04:04:28.868Z,5.20
2017-12-29T04:07:02.410Z,5.20
2017-12-29T04:09:36.068Z,5.10
2017-12-29T04:12:09.562Z,5.20
2017-12-29T04:14:43.072Z,5.20
2017-12-29T04:17:16.772Z,5.20
2017-12-29T04:19:50.315Z,5.20
2017-12-29T04:22:23.862Z,5.30
2017-12-29T04:24:57.670Z,5.30
2017-12-29T04:27:31.376Z,5.30
2017-12-29T04:30:05.084Z,5.30
2017-12-29T04:32:38.680Z,5.30
2017-12-29T04:35:12.231Z,5.30
2017-12-29T04:37:46.200Z,5.40
2017-12-29T04:40:19.786Z,5.30
2017-12-29T04:42:53.386Z,5.20
2017-12-29T04:45:27.158Z,5.20
2017-12-29T04:48:01.510Z,5.20
2017-12-29T04:50:35.110Z,5.20
2017-12-29T04:53:09.638Z,5.10
2017-12-29T04:55:43.136Z,5.10
2017-12-29T04:58:17.556Z,5.10
2017-12-29T05:00:51.115Z,5.00
2017-12-29T05:03:24.762Z,5.10
2017-12-29T05:05:58.198Z,5.00
2017-12-29T05:08:31.854Z,5.00
2017-12-29T05:11:05.454Z,5.00
2017-12-29T05:13:38.956Z,5.00
2017-12-29T05:16:12.534Z,5.00
2017-12-29T05:18:46.154Z,5.00
2017-12-29T05:21:19.739Z,5.10
2017-12-29T05:23:53.182Z,5.10
2017-12-29T05:26:26.653Z,5.20
2017-12-29T05:29:00.251Z,5.00
2017-12-29T05:31:33.810Z,5.10
2017-12-29T05:34:07.455Z,5.00
2017-12-29T05:36:41.734Z,5.00
2017-12-29T05:39:15.453Z,5.00
2017-12-29T05:41:49.081Z,5.00
2017-12-29T05:44:22.567Z,5.00
2017-12-29T05:46:56.183Z,5.00
2017-12-29T05:49:29.982Z,4.90
2017-12-29T05:52:03.688Z,4.90
2017-12-29T05:54:37.393Z,4.90
2017-12-29T05:57:10.993Z,4.80
2017-12-29T05:59:44.459Z,4.80
2017-12-29T06:02:17.899Z,4.80
2017-12-29T06:04:51.482Z,4.80
2017-12-29T06:07:25.083Z,4.80
2017-12-29T06:09:58.658Z,4.90
2017-12-29T06:12:32.234Z,5.00
2017-12-29T06:15:05.783Z,5.10
2017-12-29T06:17:39.354Z,5.00
2017-12-29T06:20:12.959Z,5.00
2017-12-29T06:22:46.595Z,4.80
2017-12-29T06:25:20.193Z,4.90
2017-12-29T06:27:54.606Z,4.80
2017-12-29T06:30:28.163Z,4.80
2017-12-29T06:33:01.982Z,4.80
2017-12-29T06:35:36.435Z,4.80
2017-12-29T06:38:09.999Z,4.80
2017-12-29T06:40:43.495Z,4.90
2017-12-29T06:43:17.130Z,4.90
2017-12-29T06:45:51.415Z,4.80
2017-12-29T06:48:25.059Z,4.80
2017-12-29T06:50:58.608Z,4.80
2017-12-29T06:53:32.978Z,5.00
2017-12-29T06:56:06.569Z,4.90
2017-12-29T06:58:40.482Z,4.90
2017-12-29T07:01:14.058Z,5.00
2017-12-29T07:03:47.681Z,5.00
2017-12-29T07:06:21.391Z,5.00
2017-12-29T07:08:54.934Z,5.00
2017-12-29T07:11:28.483Z,5.10
2017-12-29T07:14:02.193Z,5.10
2017-12-29T07:16:35.786Z,5.00
2017-12-29T07:19:09.374Z,5.00
2017-12-29T07:21:42.996Z,5.00
2017-12-29T07:24:16.662Z,5.10
2017-12-29T07:26:50.295Z,5.10
2017-12-29T07:29:23.900Z,5.10
2017-12-29T07:31:57.506Z,5.10
2017-12-29T07:34:30.975Z,5.20
2017-12-29T07:37:04.602Z,5.20
2017-12-29T07:39:38.160Z,5.20
2017-12-29T07:42:12.487Z,5.30
2017-12-29T07:44:46.220Z,5.20
2017-12-29T07:47:19.679Z,5.20
2017-12-29T07:49:53.154Z,5.20
2017-12-29T07:52:27.918Z,5.30
2017-12-29T07:55:01.751Z,5.30
2017-12-29T07:57:35.234Z,5.30
2017-12-29T08:00:08.783Z,5.30
2017-12-29T08:02:42.546Z,5.30
2017-12-29T08:05:16.122Z,5.30
2017-12-29T08:07:49.752Z,5.20
2017-12-29T08:10:23.194Z,5.20
2017-12-29T08:12:57.695Z,5.30
2017-12-29T08:15:31.379Z,5.20
2017-12-29T08:18:05.074Z,5.30
2017-12-29T08:20:38.784Z,5.30
2017-12-29T08:23:12.347Z,5.30
2017-12-29T08:25:45.943Z,5.30
2017-12-29T08:28:19.458Z,5.40
2017-12-29T08:30:53.178Z,5.30
2017-12-29T08:33:26.739Z,5.30
2017-12-29T08:36:00.999Z,5.40
2017-12-29T08:38:34.542Z,5.40
2017-12-29T08:41:08.205Z,5.30
2017-12-29T08:43:41.807Z,5.30
2017-12-29T08:46:15.398Z,5.20
2017-12-29T08:48:49.102Z,5.30
2017-12-29T08:51:22.583Z,5.30
2017-12-29T08:53:56.512Z,5.30
2017-12-29T08:56:30.831Z,5.40
2017-12-29T08:59:04.466Z,5.40
2017-12-29T09:01:38.136Z,5.30
2017-12-29T09:04:12.155Z,5.30
2017-12-29T09:06:45.848Z,5.40
2017-12-29T09:09:19.459Z,5.40
2017-12-29T09:11:53.102Z,5.40
2017-12-29T09:14:26.610Z,5.40
2017-12-29T09:17:00.154Z,5.40
2017-12-29T09:19:33.857Z,5.50
2017-12-29T09:22:07.457Z,5.50
2017-12-29T09:24:41.019Z,5.50
2017-12-29T09:27:14.650Z,5.50
2017-12-29T09:29:48.260Z,5.60
2017-12-29T09:32:22.779Z,5.60
2017-12-29T09:34:56.214Z,5.60
2017-12-29T09:37:29.714Z,5.60
2017-12-29T09:40:03.482Z,5.60
2017-12-29T09:42:37.050Z,5.60
2017-12-29T09:45:10.631Z,5.70
2017-12-29T09:47:44.154Z,5.70
2017-12-29T09:50:17.774Z,5.70
2017-12-29T09:52:51.339Z,5.70
2017-12-29T09:55:24.959Z,5.60
2017-12-29T09:57:58.571Z,5.60
2017-12-29T10:00:33.203Z,5.70
2017-12-29T10:03:06.875Z,5.60
2017-12-29T10:05:41.328Z,5.60
2017-12-29T10:08:16.171Z,5.70
2017-12-29T10:10:50.686Z,5.70
2017-12-29T10:13:24.383Z,5.70
2017-12-29T10:15:57.827Z,5.70
2017-12-29T10:18:31.890Z,5.70
2017-12-29T10:21:05.495Z,5.70
2017-12-29T10:23:39.790Z,5.80
2017-12-29T10:26:13.411Z,5.80
2017-12-29T10:28:47.116Z,5.70
2017-12-29T10:31:20.824Z,5.70
2017-12-29T10:33:54.314Z,5.80
2017-12-29T10:36:28.537Z,5.80
2017-12-29T10:39:02.191Z,5.90
2017-12-29T10:41:36.560Z,5.90
2017-12-29T10:44:10.159Z,5.90
2017-12-29T10:46:43.715Z,5.80
2017-12-29T10:49:17.250Z,5.70
2017-12-29T10:51:50.954Z,5.80
2017-12-29T10:54:24.666Z,5.80
2017-12-29T10:56:58.962Z,5.80
2017-12-29T10:59:32.583Z,5.80
2017-12-29T11:02:06.134Z,5.90
2017-12-29T11:04:39.745Z,5.90
2017-12-29T11:07:13.318Z,5.80
2017-12-29T11:09:46.983Z,5.80
2017-12-29T11:12:20.482Z,5.70
2017-12-29T11:14:54.079Z,5.90
2017-12-29T11:17:27.687Z,5.90
2017-12-29T11:20:01.279Z,5.80
2017-12-29T11:22:34.991Z,5.80
2017-12-29T11:25:08.582Z,5.90
2017-12-29T11:27:42.207Z,5.90
2017-12-29T11:30:16.502Z,5.90
2017-12-29T11:32:50.178Z,5.90
2017-12-29T11:35:23.790Z,5.90
2017-12-29T11:37:57.420Z,5.90
2017-12-29T11:40:31.320Z,5.90
2017-12-29T11:43:05.122Z,5.80
2017-12-29T11:45:38.731Z,5.80
2017-12-29T11:48:12.328Z,5.90
2017-12-29T11:50:45.779Z,5.90
2017-12-29T11:53:20.227Z,5.70
2017-12-29T11:55:53.847Z,5.70
2017-12-29T11:58:27.390Z,5.70
2017-12-29T12:01:00.999Z,5.70
2017-12-29T12:03:34.551Z,5.80
2017-12-29T12:06:08.253Z,5.90
2017-12-29T12:08:41.795Z,5.80
2017-12-29T12:11:16.139Z,5.90
2017-12-29T12:13:49.773Z,5.90
2017-12-29T12:16:23.476Z,5.90
2017-12-29T12:18:57.072Z,5.90
2017-12-29T12:21:31.493Z,5.80
2017-12-29T12:24:05.190Z,5.90
2017-12-29T12:26:38.801Z,5.90
2017-12-29T12:29:12.303Z,5.90
2017-12-29T12:31:46.613Z,5.90
2017-12-29T12:34:20.323Z,5.90
2017-12-29T12:36:53.816Z,5.90
2017-12-29T12:39:27.423Z,5.90
2017-12-29T12:42:01.119Z,6.00
2017-12-29T12:44:34.723Z,6.00
2017-12-29T12:47:09.139Z,6.10
2017-12-29T12:49:42.642Z,6.10
2017-12-29T12:52:16.243Z,6.00
2017-12-29T12:54:49.741Z,6.00
2017-12-29T12:57:23.339Z,6.10
2017-12-29T12:59:56.934Z,6.10
2017-12-29T13:02:31.458Z,6.10
2017-12-29T13:05:05.067Z,6.10
2017-12-29T13:07:38.614Z,6.10
2017-12-29T13:10:12.203Z,6.10
2017-12-29T13:12:45.962Z,6.10
2017-12-29T13:15:19.462Z,6.10
2017-12-29T13:17:53.073Z,6.00
2017-12-29T13:20:26.867Z,6.00
2017-12-29T13:23:00.674Z,6.10
2017-12-29T13:25:35.894Z,6.00
2017-12-29T13:28:10.287Z,6.10
2017-12-29T13:30:43.910Z,6.00
2017-12-29T13:33:17.540Z,6.10
2017-12-29T13:35:51.783Z,6.10
2017-12-29T13:38:25.371Z,6.10
2017-12-29T13:40:58.951Z,6.10
2017-12-29T13:43:32.759Z,6.10
2017-12-29T13:46:06.363Z,6.10
2017-12-29T13:48:39.919Z,6.00
2017-12-29T13:51:13.542Z,6.00
2017-12-29T13:53:47.164Z,6.00
2017-12-29T13:56:20.663Z,6.00
2017-12-29T13:58:54.607Z,6.10
2017-12-29T14:01:28.176Z,6.00
2017-12-29T14:04:01.624Z,6.10
2017-12-29T14:06:35.275Z,6.10
2017-12-29T14:09:08.827Z,6.10
2017-12-29T14:11:43.219Z,6.10
2017-12-29T14:14:16.987Z,6.10
2017-12-29T14:16:50.563Z,6.10
2017-12-29T14:19:24.201Z,6.10
2017-12-29T14:21:58.495Z,6.10
2017-12-29T14:24:32.110Z,6.10
2017-12-29T14:27:05.781Z,6.20
2017-12-29T14:29:39.414Z,6.20
2017-12-29T14:32:13.025Z,6.20
2017-12-29T14:34:46.753Z,6.20
2017-12-29T14:37:20.175Z,6.20
2017-12-29T14:39:53.830Z,6.20
2017-12-29T14:42:27.313Z,6.20
2017-12-29T14:45:00.918Z,6.20
2017-12-29T14:47:34.625Z,6.20
2017-12-29T14:50:08.407Z,6.20
2017-12-29T14:52:41.990Z,6.20
2017-12-29T14:55:17.063Z,6.20
2017-12-29T14:57:50.618Z,6.20
2017-12-29T15:00:24.867Z,6.20
2017-12-29T15:02:58.478Z,6.20
2017-12-29T15:05:32.183Z,6.20
2017-12-29T15:08:06.499Z,6.20
2017-12-29T15:10:40.105Z,6.20
2017-12-29T15:13:13.814Z,6.20
2017-12-29T15:15:47.287Z,6.20
2017-12-29T15:18:20.907Z,6.20
2017-12-29T15:20:55.242Z,6.10
2017-12-29T15:23:28.928Z,6.10
2017-12-29T15:26:03.223Z,6.20
2017-12-29T15:28:37.667Z,6.10
2017-12-29T15:31:11.373Z,6.10
2017-12-29T15:33:44.867Z,6.20
2017-12-29T15:36:18.567Z,6.20
2017-12-29T15:38:52.278Z,6.20
2017-12-29T15:41:25.842Z,6.20
2017-12-29T15:43:59.590Z,6.20
2017-12-29T15:46:33.971Z,6.10
2017-12-29T15:49:07.642Z,6.10
2017-12-29T15:51:41.286Z,6.10
2017-12-29T15:54:15.020Z,6.00
2017-12-29T15:56:48.715Z,6.20
2017-12-29T15:59:22.313Z,6.20
2017-12-29T16:01:59.315Z,6.10
2017-12-29T16:04:33.816Z,6.10
2017-12-29T16:07:07.413Z,6.10
2017-12-29T16:09:41.121Z,6.10
2017-12-29T16:12:15.242Z,6.00
2017-12-29T16:14:48.774Z,5.90
2017-12-29T16:17:22.390Z,6.00
2017-12-29T16:19:56.762Z,5.90
2017-12-29T16:22:30.558Z,5.80
2017-12-29T16:25:04.155Z,5.80
2017-12-29T16:27:37.611Z,5.70
2017-12-29T16:30:11.357Z,5.60
2017-12-29T16:32:45.676Z,5.60
2017-12-29T16:35:19.233Z,5.60
2017-12-29T16:37:52.883Z,5.60
2017-12-29T16:40:26.371Z,5.50
2017-12-29T16:42:59.846Z,5.50
2017-12-29T16:45:33.415Z,5.50
2017-12-29T16:48:07.022Z,5.50
2017-12-29T16:50:40.527Z,5.30
2017-12-29T16:53:14.138Z,5.40
2017-12-29T16:55:47.651Z,5.30
2017-12-29T16:58:21.273Z,5.30
2017-12-29T17:00:55.541Z,5.30
2017-12-29T17:03:29.397Z,5.30
2017-12-29T17:06:02.963Z,5.40
2017-12-29T17:08:36.571Z,5.40
2017-12-29T17:11:10.097Z,5.40
2017-12-29T17:13:43.694Z,5.40
2017-12-29T17:16:17.812Z,5.30
2017-12-29T17:18:51.616Z,5.40
2017-12-29T17:21:25.314Z,5.40
2017-12-29T17:23:59.091Z,5.40
2017-12-29T17:26:32.832Z,5.40
2017-12-29T17:29:06.378Z,5.40
2017-12-29T17:31:39.927Z,5.40
2017-12-29T17:34:13.536Z,5.40
2017-12-29T17:36:47.747Z,5.30
2017-12-29T17:39:21.354Z,5.30
2017-12-29T17:41:55.042Z,5.30
2017-12-29T17:44:29.167Z,5.40
2017-12-29T17:47:02.851Z,5.50
2017-12-29T17:49:36.419Z,5.50
2017-12-29T17:52:10.070Z,5.40
2017-12-29T17:54:44.486Z,5.40
2017-12-29T17:57:18.083Z,5.40
2017-12-29T17:59:52.414Z,5.40
2017-12-29T18:02:26.699Z,5.40
2017-12-29T18:05:00.283Z,5.40
2017-12-29T18:07:33.787Z,5.40
2017-12-29T18:10:07.487Z,5.40
2017-12-29T18:12:41.097Z,5.40
2017-12-29T18:15:14.771Z,5.30
2017-12-29T18:17:48.426Z,5.30
2017-12-29T18:20:22.031Z,5.30
2017-12-29T18:22:56.140Z,5.30
2017-12-29T18:25:30.564Z,5.40
2017-12-29T18:28:04.055Z,5.40
2017-12-29T18:30:37.666Z,5.30
2017-12-29T18:33:11.259Z,5.30
2017-12-29T18:35:44.947Z,5.40
2017-12-29T18:38:18.522Z,5.40
2017-12-29T18:40:52.209Z,5.30
2017-12-29T18:43:25.662Z,5.30
2017-12-29T18:45:59.298Z,5.30
2017-12-29T18:48:32.967Z,5.30
2017-12-29T18:51:06.466Z,5.30
2017-12-29T18:53:40.047Z,5.40
2017-12-29T18:56:13.583Z,5.40
2017-12-29T18:58:47.367Z,5.40
2017-12-29T19:01:21.696Z,5.30
2017-12-29T19:03:55.504Z,5.30
2017-12-29T19:06:29.303Z,5.30
2017-12-29T19:09:02.955Z,5.30
2017-12-29T19:11:36.504Z,5.30
2017-12-29T19:14:10.091Z,5.20
2017-12-29T19:16:43.702Z,5.20
2017-12-29T19:19:17.270Z,5.20
2017-12-29T19:21:50.903Z,5.20
2017-12-29T19:24:24.347Z,5.20
2017-12-29T19:26:58.023Z,5.20
2017-12-29T19:29:31.706Z,5.30
2017-12-29T19:32:06.127Z,5.10
2017-12-29T19:34:39.571Z,5.10
2017-12-29T19:37:13.179Z,5.30
2017-12-29T19:39:46.690Z,5.20
2017-12-29T19:42:20.938Z,5.20
2017-12-29T19:44:55.354Z,5.30
2017-12-29T19:47:28.955Z,5.30
2017-12-29T19:50:03.888Z,5.10
2017-12-29T19:52:37.478Z,5.10
2017-12-29T19:55:11.011Z,5.20
2017-12-29T19:57:44.450Z,5.20
2017-12-29T20:00:17.974Z,5.20
2017-12-29T20:02:51.491Z,5.20
2017-12-29T20:05:25.775Z,5.20
2017-12-29T20:07:59.996Z,5.30
2017-12-29T20:10:34.206Z,5.30
2017-12-29T20:13:08.415Z,5.30
2017-12-29T20:15:41.963Z,5.30
2017-12-29T20:18:15.402Z,5.30
2017-12-29T20:20:48.850Z,5.30
2017-12-29T20:23:23.147Z,5.30
2017-12-29T20:25:56.763Z,5.30
2017-12-29T20:28:30.367Z,5.30
2017-12-29T20:31:03.815Z,5.40
2017-12-29T20:33:37.455Z,5.40
2017-12-29T20:36:10.895Z,5.40
2017-12-29T20:38:44.355Z,5.40
2017-12-29T20:41:17.795Z,5.40
2017-12-29T20:43:51.401Z,5.40
2017-12-29T20:46:24.907Z,5.40
2017-12-29T20:48:58.359Z,5.50
2017-12-29T20:51:32.626Z,5.50
2017-12-29T20:54:06.290Z,5.50
2017-12-29T20:56:40.622Z,5.40
2017-12-29T20:59:14.034Z,5.40
2017-12-29T21:01:47.498Z,5.40
2017-12-29T21:04:21.070Z,5.30
2017-12-29T21:06:54.587Z,5.40
2017-12-29T21:09:28.026Z,5.40
2017-12-29T21:12:01.667Z,5.40
2017-12-29T21:14:35.895Z,5.40
2017-12-29T21:17:09.478Z,5.40
2017-12-29T21:19:43.003Z,5.40
2017-12-29T21:22:16.579Z,5.30
2017-12-29T21:24:50.791Z,5.30
2017-12-29T21:27:24.355Z,5.30
2017-12-29T21:29:57.878Z,5.30
2017-12-29T21:32:31.395Z,5.30
2017-12-29T21:35:05.811Z,5.50
2017-12-29T21:37:40.011Z,5.40
2017-12-29T21:40:13.549Z,5.40
2017-12-29T21:42:47.815Z,5.40
2017-12-29T21:45:21.547Z,5.40
2017-12-29T21:47:55.750Z,5.50
2017-12-29T21:50:29.283Z,5.50
2017-12-29T21:53:03.575Z,5.40
2017-12-29T21:55:38.591Z,5.30
2017-12-29T21:58:12.119Z,5.40
2017-12-29T22:00:45.567Z,5.40
2017-12-29T22:03:19.025Z,5.40
2017-12-29T22:05:53.311Z,5.40
2017-12-29T22:08:26.850Z,5.40
2017-12-29T22:11:00.429Z,5.50
2017-12-29T22:13:33.883Z,5.50
2017-12-29T22:16:07.440Z,5.40
2017-12-29T22:18:40.898Z,5.40
2017-12-29T22:21:15.115Z,5.40
2017-12-29T22:23:48.638Z,5.40
2017-12-29T22:26:22.152Z,5.40
2017-12-29T22:28:55.669Z,5.40
2017-12-29T22:31:29.826Z,5.30
2017-12-29T22:34:03.368Z,5.30
2017-12-29T22:36:36.811Z,5.40
2017-12-29T22:39:10.363Z,5.40
2017-12-29T22:41:43.932Z,5.50
2017-12-29T22:44:17.436Z,5.40
2017-12-29T22:46:50.906Z,5.50
2017-12-29T22:49:24.414Z,5.50
2017-12-29T22:51:57.946Z,5.50
2017-12-29T22:54:31.463Z,5.40
2017-12-29T22:57:05.015Z,5.40
2017-12-29T22:59:39.227Z,5.40
2017-12-29T23:02:12.795Z,5.40
2017-12-29T23:04:46.258Z,5.40
2017-12-29T23:07:19.706Z,5.40
2017-12-29T23:09:53.167Z,5.40
2017-12-29T23:12:26.608Z,5.30
2017-12-29T23:15:00.135Z,5.30
2017-12-29T23:17:34.558Z,5.30
2017-12-29T23:20:08.154Z,5.30
2017-12-29T23:22:41.678Z,5.30
2017-12-29T23:25:15.310Z,5.30
2017-12-29T23:27:48.767Z,5.40
2017-12-29T23:30:22.283Z,5.40
2017-12-29T23:32:56.550Z,5.50
2017-12-29T23:35:30.071Z,5.50
2017-12-29T23:38:03.651Z,5.60
2017-12-29T23:40:37.098Z,5.40
2017-12-29T23:43:10.627Z,5.40
2017-12-29T23:45:44.079Z,5.40
2017-12-29T23:48:17.654Z,5.50
2017-12-29T23:50:51.979Z,5.40
2017-12-29T23:53:25.551Z,5.40
2017-12-29T23:55:59.063Z,5.40
2017-12-29T23:58:32.507Z,5.50
